NZAANFTF

Guest
Details From NZAA - Auckland International
To NFTF - Fua Amotu Intl
Flight Number -
Tags Generated
Created
Modified
Stats Distance 1,084 nm / 2,007 km
Max Altitude 0 ft / 0 m
Waypoints 4
Social Downloads 1
Likes 0
Share VATSIM

Download

Looking for another format? Having issues loading an existing format? Contact us
Advertisement - Login to hide

Notes

Generated

Route

NZAA SELKA TBU NFTF

ID Type Via Altitude Latitude Longitude Leg Dist Tot Dist Heading (true) Name
O NZAA APT - 0 ft / 0 m -37.01438˚ 174.77090˚ - 0 nm - -
SELKA FIX - 0 ft / 0 m -34.14939˚ 176.92756˚ 201 nm 201 nm 32° / 31° -
TBU VOR - 0 ft / 0 m -21.24556˚ -175.14722˚ 881 nm 1083 nm 30° / 27° -
O NFTF APT - 0 ft / 0 m -21.23770˚ -175.13873˚ 0 nm 1083 nm 45° / 45° Fua Amotu Intl

Altitude Profile

Advertisement - Login to hide

Weather


0- 5 10 15 20 25 30 35+ Temperature / ° C

Clouds and Precipitation
Forecast for 2018-05-21 12:00 UTC. Updated 8 minutes ago

Ground ~20,000 ft ~40,000 ft Winds

NZAA

Details ICAO NZAA (AKL)
Name Auckland International
Region New Zealand and Antarctica
Timezone Pacific/Auckland (UTC+12.0)
Stats Elevation 23 ft / 7 m (AMSL)
Location -37.010794° 174.787331°
Runways 2
Magnetic Variation 19.856° E

METAR

NZAA 211100Z AUTO 01003KT 9999 -RA BKN046/// BKN060/// 13/12 Q1010 TEMPO 6000 SHRA FEW020TCU

Decode

TAF

TAF TAF NZAA 210526Z 2106/2206 28005KT 9999 -SHRA BKN030 TEMPO 2106/2112 6000 SHRA SCT020TCU TEMPO 2112/2206 6000 SHRA BKN008 FEW020TCU

Decode

Departure Runways

ID Width Length Bearing (true) Bearing (mag) Surface Threshold Offset Overrun Length
05L 157 ft / 48 m 10,844 ft / 3,305 m 70.91° 51.05° Concrete 1,240 ft / 378 m 460 ft / 140 m
05R 152 ft / 46 m 12,085 ft / 3,684 m 70.96° 51.10° Concrete 1,270 ft / 387 m 0 ft / 0 m
23L 152 ft / 46 m 12,085 ft / 3,684 m 250.94° 231.08° Concrete 0 ft / 0 m 0 ft / 0 m
23R 157 ft / 48 m 10,844 ft / 3,305 m 250.89° 231.03° Concrete 1,060 ft / 323 m 0 ft / 0 m

NFTF

Details ICAO NFTF (TBU)
Name Fua Amotu Intl
Region Fiji and Tonga
Timezone Pacific/Tongatapu (UTC+13.0)
Stats Elevation 126 ft / 38 m (AMSL)
Location -21.242493° -175.144569°
Runways 2
Magnetic Variation 13.684° E

METAR

NFTF 211100Z 00000KT 9999 FEW016 23/23 Q1015 RMK GRASS DEW

Decode

TAF

TAF NFTF 210524Z 2106/2206 VRB03KT 9999 FEW009 SCT018 FM211600 VRB03KT 0600 FG FEW018 FM1930 08007KT 9999 SCT018

Decode

Destination Runways

ID Width Length Bearing (true) Bearing (mag) Surface Threshold Offset Overrun Length
11 148 ft / 45 m 8,967 ft / 2,733 m 122.10° 108.42° Asphalt 0 ft / 0 m 194 ft / 59 m
17 194 ft / 59 m 4,960 ft / 1,512 m 182.40° 168.72° Unknown 0 ft / 0 m 0 ft / 0 m
29 148 ft / 45 m 8,967 ft / 2,733 m 302.09° 288.41° Asphalt 0 ft / 0 m 194 ft / 59 m
35 194 ft / 59 m 4,960 ft / 1,512 m 2.40° 348.72° Unknown 0 ft / 0 m 0 ft / 0 m

Popular Alternatives